Flight Briefing for CPX799

Departure Arrival
Miami International Airport (KMIA)
Click to view FAA NOTAMS
Aeropuerto Internacional Ezeiza/Ministro Pistarini (SAEZ)
Click to view FAA NOTAMS
Departure Time Arrival Time
N/A N/A
Aircraft Distance
MD-11SF 3849nm
Departure METAR Arrival METAR
KMIA 151953Z 14009KT 10SM SCT032 BKN250 26/19 A2993 RMK AO2 SLP136 T02560189 SAEZ 152000Z 09004KT CAVOK 28/13 Q1014 NOSIG
Suggested Route
EONNS2 EONNS A509 URSUS UL795 DIBOK UL795 LOGON UL793 SIMUR UL793 AKNOV UL793 SASNO UL793 ROKES UL793 XOLAT UL793 AKPEL UL793 SIS UL793 GUA UW65 PAGON PAGON6B


View recent IFR Routes data
Notes



Charts and Procedures

Charts for KMIA
No chart available
Charts for SAEZ
No chart available

Ventusky Weather